sensor_id;sensor_type;location;lat;lon;timestamp;pressure;altitude;pressure_sealevel;temperature;humidity
26775;BME280;14362;51.902;7.626;2023-07-31T00:03:14;100406.16;;;16.62;100.00
26775;BME280;14362;51.902;7.626;2023-07-31T00:07:15;100396.25;;;16.49;100.00
26775;BME280;14362;51.902;7.626;2023-07-31T00:11:16;100393.56;;;16.38;100.00
26775;BME280;14362;51.902;7.626;2023-07-31T00:15:19;100383.34;;;16.30;100.00
26775;BME280;14362;51.902;7.626;2023-07-31T00:19:21;100377.56;;;16.23;100.00
26775;BME280;14362;51.902;7.626;2023-07-31T00:23:22;100377.34;;;16.12;100.00
26775;BME280;14362;51.902;7.626;2023-07-31T00:27:23;100386.91;;;16.08;100.00
26775;BME280;14362;51.902;7.626;2023-07-31T00:31:26;100375.47;;;16.01;100.00
26775;BME280;14362;51.902;7.626;2023-07-31T00:35:28;100378.28;;;16.01;100.00
26775;BME280;14362;51.902;7.626;2023-07-31T00:39:29;100369.06;;;16.00;100.00
26775;BME280;14362;51.902;7.626;2023-07-31T00:43:31;100373.84;;;16.00;100.00
26775;BME280;14362;51.902;7.626;2023-07-31T00:47:34;100366.16;;;15.97;100.00
26775;BME280;14362;51.902;7.626;2023-07-31T00:51:35;100363.72;;;15.95;100.00
26775;BME280;14362;51.902;7.626;2023-07-31T00:55:37;100364.47;;;15.92;100.00
26775;BME280;14362;51.902;7.626;2023-07-31T00:59:38;100356.41;;;15.91;100.00
26775;BME280;14362;51.902;7.626;2023-07-31T01:03:41;100361.19;;;15.90;100.00
26775;BME280;14362;51.902;7.626;2023-07-31T01:07:49;100349.16;;;15.90;100.00
26775;BME280;14362;51.902;7.626;2023-07-31T01:11:57;100359.50;;;15.86;100.00
26775;BME280;14362;51.902;7.626;2023-07-31T01:15:59;100351.59;;;15.91;100.00
26775;BME280;14362;51.902;7.626;2023-07-31T01:20:05;100348.84;;;15.95;100.00
26775;BME280;14362;51.902;7.626;2023-07-31T01:24:21;100345.16;;;15.91;100.00
26775;BME280;14362;51.902;7.626;2023-07-31T01:28:28;100346.25;;;15.86;100.00
26775;BME280;14362;51.902;7.626;2023-07-31T01:32:34;100334.66;;;15.88;100.00
26775;BME280;14362;51.902;7.626;2023-07-31T01:36:36;100345.06;;;15.87;100.00
26775;BME280;14362;51.902;7.626;2023-07-31T01:40:41;100332.28;;;15.90;100.00
26775;BME280;14362;51.902;7.626;2023-07-31T01:44:44;100319.03;;;15.90;100.00
26775;BME280;14362;51.902;7.626;2023-07-31T01:48:45;100319.31;;;15.85;100.00
26775;BME280;14362;51.902;7.626;2023-07-31T01:52:47;100310.16;;;15.88;100.00
26775;BME280;14362;51.902;7.626;2023-07-31T01:56:48;100310.16;;;15.88;100.00
26775;BME280;14362;51.902;7.626;2023-07-31T02:00:51;100306.53;;;15.88;100.00
26775;BME280;14362;51.902;7.626;2023-07-31T02:04:53;100311.34;;;15.87;100.00
26775;BME280;14362;51.902;7.626;2023-07-31T02:08:54;100299.34;;;15.90;100.00
26775;BME280;14362;51.902;7.626;2023-07-31T02:12:55;100301.00;;;15.91;100.00
26775;BME280;14362;51.902;7.626;2023-07-31T02:16:59;100296.25;;;15.95;100.00
26775;BME280;14362;51.902;7.626;2023-07-31T02:21:00;100284.41;;;16.05;100.00
26775;BME280;14362;51.902;7.626;2023-07-31T02:25:02;100287.66;;;16.07;100.00
26775;BME280;14362;51.902;7.626;2023-07-31T02:29:03;100293.88;;;16.16;100.00
26775;BME280;14362;51.902;7.626;2023-07-31T02:33:06;100291.97;;;16.20;100.00
26775;BME280;14362;51.902;7.626;2023-07-31T02:37:07;100291.63;;;16.25;100.00
26775;BME280;14362;51.902;7.626;2023-07-31T02:41:09;100287.72;;;16.30;100.00
26775;BME280;14362;51.902;7.626;2023-07-31T02:45:10;100282.91;;;16.30;100.00
26775;BME280;14362;51.902;7.626;2023-07-31T02:49:13;100291.00;;;16.32;100.00
26775;BME280;14362;51.902;7.626;2023-07-31T02:53:14;100289.06;;;16.36;100.00
26775;BME280;14362;51.902;7.626;2023-07-31T02:57:16;100289.44;;;16.34;100.00
26775;BME280;14362;51.902;7.626;2023-07-31T03:01:17;100285.44;;;16.35;100.00
26775;BME280;14362;51.902;7.626;2023-07-31T03:05:20;100281.44;;;16.36;100.00
26775;BME280;14362;51.902;7.626;2023-07-31T03:09:22;100279.06;;;16.38;100.00
26775;BME280;14362;51.902;7.626;2023-07-31T03:13:23;100289.50;;;16.38;100.00
26775;BME280;14362;51.902;7.626;2023-07-31T03:17:24;100280.63;;;16.36;100.00
26775;BME280;14362;51.902;7.626;2023-07-31T03:21:27;100276.56;;;16.33;100.00
26775;BME280;14362;51.902;7.626;2023-07-31T03:25:29;100276.56;;;16.33;100.00
26775;BME280;14362;51.902;7.626;2023-07-31T03:29:30;100277.28;;;16.30;100.00
26775;BME280;14362;51.902;7.626;2023-07-31T03:33:31;100289.00;;;16.32;100.00
26775;BME280;14362;51.902;7.626;2023-07-31T03:37:34;100280.47;;;16.29;100.00
26775;BME280;14362;51.902;7.626;2023-07-31T03:41:36;100274.47;;;16.30;100.00
26775;BME280;14362;51.902;7.626;2023-07-31T03:45:37;100265.53;;;16.25;100.00
26775;BME280;14362;51.902;7.626;2023-07-31T03:49:39;100265.53;;;16.25;100.00
26775;BME280;14362;51.902;7.626;2023-07-31T03:53:41;100268.69;;;16.23;100.00
26775;BME280;14362;51.902;7.626;2023-07-31T03:57:43;100269.13;;;16.25;100.00
26775;BME280;14362;51.902;7.626;2023-07-31T04:01:44;100261.47;;;16.22;100.00
26775;BME280;14362;51.902;7.626;2023-07-31T04:05:46;100262.22;;;16.19;100.00
26775;BME280;14362;51.902;7.626;2023-07-31T04:09:49;100265.47;;;16.21;100.00
26775;BME280;14362;51.902;7.626;2023-07-31T04:13:50;100267.88;;;16.23;100.00
26775;BME280;14362;51.902;7.626;2023-07-31T04:17:51;100274.69;;;16.22;100.00
26775;BME280;14362;51.902;7.626;2023-07-31T04:21:53;100271.88;;;16.22;100.00
26775;BME280;14362;51.902;7.626;2023-07-31T04:25:56;100277.91;;;16.20;100.00
26775;BME280;14362;51.902;7.626;2023-07-31T04:29:57;100262.25;;;16.23;100.00
26775;BME280;14362;51.902;7.626;2023-07-31T04:33:59;100271.44;;;16.20;100.00
26775;BME280;14362;51.902;7.626;2023-07-31T04:38:00;100267.09;;;16.22;100.00
26775;BME280;14362;51.902;7.626;2023-07-31T04:42:03;100265.97;;;16.27;100.00
26775;BME280;14362;51.902;7.626;2023-07-31T04:46:05;100261.53;;;16.26;100.00
26775;BME280;14362;51.902;7.626;2023-07-31T04:50:07;100260.41;;;16.30;100.00
26775;BME280;14362;51.902;7.626;2023-07-31T04:54:09;100268.84;;;16.30;100.00
26775;BME280;14362;51.902;7.626;2023-07-31T04:58:14;100268.03;;;16.30;100.00
26775;BME280;14362;51.902;7.626;2023-07-31T05:02:15;100272.47;;;16.31;100.00
26775;BME280;14362;51.902;7.626;2023-07-31T05:06:16;100266.84;;;16.31;100.00
26775;BME280;14362;51.902;7.626;2023-07-31T05:10:18;100262.06;;;16.31;100.00
26775;BME280;14362;51.902;7.626;2023-07-31T05:14:21;100261.66;;;16.33;100.00
26775;BME280;14362;51.902;7.626;2023-07-31T05:18:22;100256.94;;;16.37;100.00
26775;BME280;14362;51.902;7.626;2023-07-31T05:22:24;100257.00;;;16.40;100.00
26775;BME280;14362;51.902;7.626;2023-07-31T05:26:25;100251.78;;;16.42;100.00
26775;BME280;14362;51.902;7.626;2023-07-31T05:30:29;100254.69;;;16.45;100.00
26775;BME280;14362;51.902;7.626;2023-07-31T05:34:31;100254.75;;;16.49;100.00
26775;BME280;14362;51.902;7.626;2023-07-31T05:38:32;100254.00;;;16.52;100.00
26775;BME280;14362;51.902;7.626;2023-07-31T05:42:34;100222.31;;;16.55;100.00
26775;BME280;14362;51.902;7.626;2023-07-31T05:46:39;100238.06;;;16.59;100.00
26775;BME280;14362;51.902;7.626;2023-07-31T05:50:41;100230.50;;;16.63;100.00
26775;BME280;14362;51.902;7.626;2023-07-31T05:54:42;100234.63;;;16.69;100.00
26775;BME280;14362;51.902;7.626;2023-07-31T05:58:44;100228.59;;;16.71;100.00
26775;BME280;14362;51.902;7.626;2023-07-31T06:02:46;100222.59;;;16.72;100.00
26775;BME280;14362;51.902;7.626;2023-07-31T06:06:48;100214.13;;;16.72;100.00
26775;BME280;14362;51.902;7.626;2023-07-31T06:10:49;100212.16;;;16.73;100.00
26775;BME280;14362;51.902;7.626;2023-07-31T06:14:51;100209.78;;;16.75;100.00
26775;BME280;14362;51.902;7.626;2023-07-31T06:18:54;100204.94;;;16.75;100.00
26775;BME280;14362;51.902;7.626;2023-07-31T06:22:55;100207.31;;;16.73;100.00
26775;BME280;14362;51.902;7.626;2023-07-31T06:26:56;100198.53;;;16.75;100.00
26775;BME280;14362;51.902;7.626;2023-07-31T06:30:59;100199.41;;;16.79;100.00
26775;BME280;14362;51.902;7.626;2023-07-31T06:35:02;100203.44;;;16.81;100.00
26775;BME280;14362;51.902;7.626;2023-07-31T06:39:04;100195.53;;;16.90;100.00
26775;BME280;14362;51.902;7.626;2023-07-31T06:43:05;100189.56;;;16.95;100.00
26775;BME280;14362;51.902;7.626;2023-07-31T06:47:08;100199.69;;;17.00;100.00
26775;BME280;14362;51.902;7.626;2023-07-31T06:51:11;100206.16;;;17.00;100.00
26775;BME280;14362;51.902;7.626;2023-07-31T06:55:17;100209.75;;;17.01;100.00
26775;BME280;14362;51.902;7.626;2023-07-31T06:59:19;100200.53;;;17.00;100.00
26775;BME280;14362;51.902;7.626;2023-07-31T07:03:20;100217.38;;;16.97;100.00
26775;BME280;14362;51.902;7.626;2023-07-31T07:07:23;100217.28;;;16.93;100.00
26775;BME280;14362;51.902;7.626;2023-07-31T07:11:25;100218.81;;;16.87;100.00
26775;BME280;14362;51.902;7.626;2023-07-31T07:15:26;100210.31;;;16.84;100.00
26775;BME280;14362;51.902;7.626;2023-07-31T07:19:29;100199.88;;;16.84;100.00
26775;BME280;14362;51.902;7.626;2023-07-31T07:23:31;100205.06;;;16.82;100.00
26775;BME280;14362;51.902;7.626;2023-07-31T07:27:33;100196.56;;;16.79;100.00
26775;BME280;14362;51.902;7.626;2023-07-31T07:31:34;100197.41;;;16.83;100.00
26775;BME280;14362;51.902;7.626;2023-07-31T07:35:36;100197.50;;;16.86;100.00
26775;BME280;14362;51.902;7.626;2023-07-31T07:39:39;100199.97;;;16.91;100.00
26775;BME280;14362;51.902;7.626;2023-07-31T07:43:40;100198.03;;;16.95;100.00
26775;BME280;14362;51.902;7.626;2023-07-31T07:47:42;100195.69;;;17.01;100.00
26775;BME280;14362;51.902;7.626;2023-07-31T07:51:43;100199.66;;;16.96;100.00
26775;BME280;14362;51.902;7.626;2023-07-31T07:55:46;100177.53;;;16.95;100.00
26775;BME280;14362;51.902;7.626;2023-07-31T07:59:47;100170.31;;;16.97;100.00
26775;BME280;14362;51.902;7.626;2023-07-31T08:03:49;100178.88;;;17.04;100.00
26775;BME280;14362;51.902;7.626;2023-07-31T08:07:51;100173.66;;;17.06;100.00
26775;BME280;14362;51.902;7.626;2023-07-31T08:11:54;100162.00;;;17.08;100.00
26775;BME280;14362;51.902;7.626;2023-07-31T08:15:58;100154.34;;;17.08;100.00
26775;BME280;14362;51.902;7.626;2023-07-31T08:19:59;100151.19;;;17.10;100.00
26775;BME280;14362;51.902;7.626;2023-07-31T08:24:00;100151.94;;;17.07;100.00
26775;BME280;14362;51.902;7.626;2023-07-31T08:28:04;100140.72;;;17.10;100.00
26775;BME280;14362;51.902;7.626;2023-07-31T08:32:06;100140.34;;;17.12;100.00
26775;BME280;14362;51.902;7.626;2023-07-31T08:36:08;100137.81;;;17.03;100.00
26775;BME280;14362;51.902;7.626;2023-07-31T08:40:10;100139.03;;;17.06;100.00
26775;BME280;14362;51.902;7.626;2023-07-31T08:44:13;100131.47;;;17.10;100.00
26775;BME280;14362;51.902;7.626;2023-07-31T08:48:17;100139.53;;;17.11;100.00
26775;BME280;14362;51.902;7.626;2023-07-31T08:52:19;100127.06;;;17.12;100.00
26775;BME280;14362;51.902;7.626;2023-07-31T08:56:20;100124.63;;;17.11;100.00
26775;BME280;14362;51.902;7.626;2023-07-31T09:00:24;100133.09;;;17.11;100.00
26775;BME280;14362;51.902;7.626;2023-07-31T09:04:26;100133.16;;;17.18;100.00
26775;BME280;14362;51.902;7.626;2023-07-31T09:08:30;100126.41;;;17.22;100.00
26775;BME280;14362;51.902;7.626;2023-07-31T09:12:32;100131.97;;;17.19;100.00
26775;BME280;14362;51.902;7.626;2023-07-31T09:16:35;100128.97;;;17.05;100.00
26775;BME280;14362;51.902;7.626;2023-07-31T09:20:36;100121.44;;;17.12;100.00
26775;BME280;14362;51.902;7.626;2023-07-31T09:24:38;100129.56;;;17.17;100.00
26775;BME280;14362;51.902;7.626;2023-07-31T09:28:40;100125.94;;;17.17;100.00
26775;BME280;14362;51.902;7.626;2023-07-31T09:32:44;100131.56;;;17.17;100.00
26775;BME280;14362;51.902;7.626;2023-07-31T09:36:47;100129.56;;;17.17;100.00
26775;BME280;14362;51.902;7.626;2023-07-31T09:40:49;100121.06;;;17.14;100.00
26775;BME280;14362;51.902;7.626;2023-07-31T09:44:51;100122.13;;;17.02;100.00
26775;BME280;14362;51.902;7.626;2023-07-31T09:49:03;100112.31;;;16.93;100.00
26775;BME280;14362;51.902;7.626;2023-07-31T09:53:05;100120.53;;;17.05;100.00
26775;BME280;14362;51.902;7.626;2023-07-31T09:57:08;100112.63;;;17.14;100.00
26775;BME280;14362;51.902;7.626;2023-07-31T10:01:10;100116.69;;;17.20;100.00
26775;BME280;14362;51.902;7.626;2023-07-31T10:05:14;100110.63;;;17.18;100.00
26775;BME280;14362;51.902;7.626;2023-07-31T10:09:18;100113.81;;;17.13;100.00
26775;BME280;14362;51.902;7.626;2023-07-31T10:13:19;100112.94;;;17.09;100.00
26775;BME280;14362;51.902;7.626;2023-07-31T10:17:23;100103.41;;;17.17;100.00
26775;BME280;14362;51.902;7.626;2023-07-31T10:21:26;100111.06;;;17.20;100.00
26775;BME280;14362;51.902;7.626;2023-07-31T10:25:29;100098.66;;;17.24;100.00
26775;BME280;14362;51.902;7.626;2023-07-31T10:29:32;100099.97;;;17.30;100.00
26775;BME280;14362;51.902;7.626;2023-07-31T10:33:34;100097.50;;;17.29;100.00
26775;BME280;14362;51.902;7.626;2023-07-31T10:37:38;100097.63;;;17.36;100.00
26775;BME280;14362;51.902;7.626;2023-07-31T10:41:40;100098.00;;;17.34;100.00
26775;BME280;14362;51.902;7.626;2023-07-31T10:45:42;100094.31;;;17.30;100.00
26775;BME280;14362;51.902;7.626;2023-07-31T10:49:45;100098.28;;;17.26;100.00
26775;BME280;14362;51.902;7.626;2023-07-31T10:53:48;100095.88;;;17.28;100.00
26775;BME280;14362;51.902;7.626;2023-07-31T10:57:51;100077.44;;;17.30;100.00
26775;BME280;14362;51.902;7.626;2023-07-31T11:01:54;100088.75;;;17.34;100.00
26775;BME280;14362;51.902;7.626;2023-07-31T11:06:01;100080.78;;;17.39;100.00
26775;BME280;14362;51.902;7.626;2023-07-31T11:10:06;100075.59;;;17.45;100.00
26775;BME280;14362;51.902;7.626;2023-07-31T11:14:10;100082.50;;;17.50;100.00
26775;BME280;14362;51.902;7.626;2023-07-31T11:18:11;100082.13;;;17.55;100.00
26775;BME280;14362;51.902;7.626;2023-07-31T11:22:13;100068.88;;;17.56;100.00
26775;BME280;14362;51.902;7.626;2023-07-31T11:26:16;100074.47;;;17.52;100.00
26775;BME280;14362;51.902;7.626;2023-07-31T11:30:18;100078.53;;;17.55;100.00
26775;BME280;14362;51.902;7.626;2023-07-31T11:34:20;100076.94;;;17.57;100.00
26775;BME280;14362;51.902;7.626;2023-07-31T11:38:22;100064.88;;;17.57;100.00
26775;BME280;14362;51.902;7.626;2023-07-31T11:42:26;100076.56;;;17.59;100.00
26775;BME280;14362;51.902;7.626;2023-07-31T11:46:27;100067.66;;;17.53;100.00
26775;BME280;14362;51.902;7.626;2023-07-31T11:50:33;100064.44;;;17.55;100.00
26775;BME280;14362;51.902;7.626;2023-07-31T11:54:35;100056.84;;;17.62;100.00
26775;BME280;14362;51.902;7.626;2023-07-31T11:58:38;100060.13;;;17.68;100.00
26775;BME280;14362;51.902;7.626;2023-07-31T12:02:41;100052.50;;;17.68;100.00
26775;BME280;14362;51.902;7.626;2023-07-31T12:06:43;100061.81;;;17.72;100.00
26775;BME280;14362;51.902;7.626;2023-07-31T12:10:45;100049.06;;;17.89;100.00
26775;BME280;14362;51.902;7.626;2023-07-31T12:14:49;100034.69;;;18.04;100.00
26775;BME280;14362;51.902;7.626;2023-07-31T12:18:52;100043.66;;;18.17;100.00
26775;BME280;14362;51.902;7.626;2023-07-31T12:22:56;100043.03;;;18.37;100.00
26775;BME280;14362;51.902;7.626;2023-07-31T12:26:58;100045.91;;;18.44;100.00
26775;BME280;14362;51.902;7.626;2023-07-31T12:31:00;100039.13;;;18.55;100.00
26775;BME280;14362;51.902;7.626;2023-07-31T12:35:06;100030.34;;;18.71;100.00
26775;BME280;14362;51.902;7.626;2023-07-31T12:39:08;100037.63;;;18.75;100.00
26775;BME280;14362;51.902;7.626;2023-07-31T12:43:09;100027.56;;;18.78;100.00
26775;BME280;14362;51.902;7.626;2023-07-31T12:47:12;100015.47;;;18.77;100.00
26775;BME280;14362;51.902;7.626;2023-07-31T12:51:15;100017.88;;;18.79;100.00
26775;BME280;14362;51.902;7.626;2023-07-31T12:55:17;100016.31;;;18.85;100.00
26775;BME280;14362;51.902;7.626;2023-07-31T12:59:18;100021.13;;;18.88;100.00
26775;BME280;14362;51.902;7.626;2023-07-31T13:03:21;100010.66;;;18.85;100.00
26775;BME280;14362;51.902;7.626;2023-07-31T13:07:23;100003.03;;;18.92;100.00
26775;BME280;14362;51.902;7.626;2023-07-31T13:11:25;100004.66;;;18.97;100.00
26775;BME280;14362;51.902;7.626;2023-07-31T13:15:27;99988.88;;;18.89;100.00
26775;BME280;14362;51.902;7.626;2023-07-31T13:19:29;99986.09;;;18.99;100.00
26775;BME280;14362;51.902;7.626;2023-07-31T13:23:31;99982.84;;;18.90;100.00
26775;BME280;14362;51.902;7.626;2023-07-31T13:27:32;99976.38;;;18.90;100.00
26775;BME280;14362;51.902;7.626;2023-07-31T13:31:34;99975.56;;;18.86;100.00
26775;BME280;14362;51.902;7.626;2023-07-31T13:35:36;99983.59;;;18.77;100.00
26775;BME280;14362;51.902;7.626;2023-07-31T13:39:38;99977.94;;;18.73;100.00
26775;BME280;14362;51.902;7.626;2023-07-31T13:43:40;99989.66;;;18.79;100.00
26775;BME280;14362;51.902;7.626;2023-07-31T13:47:41;99967.44;;;18.74;100.00
26775;BME280;14362;51.902;7.626;2023-07-31T13:51:44;99962.63;;;18.78;100.00
26775;BME280;14362;51.902;7.626;2023-07-31T13:55:46;99953.72;;;18.79;100.00
26775;BME280;14362;51.902;7.626;2023-07-31T13:59:49;99964.25;;;18.82;100.00
26775;BME280;14362;51.902;7.626;2023-07-31T14:03:50;99974.38;;;18.87;100.00
26775;BME280;14362;51.902;7.626;2023-07-31T14:07:53;99983.25;;;18.92;100.00
26775;BME280;14362;51.902;7.626;2023-07-31T14:11:55;99972.78;;;19.00;100.00
26775;BME280;14362;51.902;7.626;2023-07-31T14:15:56;99975.19;;;18.98;100.00
26775;BME280;14362;51.902;7.626;2023-07-31T14:19:58;99978.81;;;18.98;100.00
26775;BME280;14362;51.902;7.626;2023-07-31T14:24:01;99975.16;;;18.87;100.00
26775;BME280;14362;51.902;7.626;2023-07-31T14:28:02;99980.81;;;18.91;100.00
26775;BME280;14362;51.902;7.626;2023-07-31T14:32:04;99971.53;;;18.90;100.00
26775;BME280;14362;51.902;7.626;2023-07-31T14:36:06;99966.31;;;18.96;100.00
26775;BME280;14362;51.902;7.626;2023-07-31T14:40:11;99969.97;;;19.07;100.00
26775;BME280;14362;51.902;7.626;2023-07-31T14:44:13;99958.66;;;19.07;100.00
26775;BME280;14362;51.902;7.626;2023-07-31T14:48:14;99963.53;;;19.10;100.00
26775;BME280;14362;51.902;7.626;2023-07-31T14:52:16;99950.59;;;19.05;100.00
26775;BME280;14362;51.902;7.626;2023-07-31T14:56:18;99952.19;;;18.99;100.00
26775;BME280;14362;51.902;7.626;2023-07-31T15:00:20;99944.13;;;18.98;100.00
26775;BME280;14362;51.902;7.626;2023-07-31T15:04:22;99940.88;;;18.96;100.00
26775;BME280;14362;51.902;7.626;2023-07-31T15:08:23;99952.19;;;18.96;100.00
26775;BME280;14362;51.902;7.626;2023-07-31T15:12:26;99947.38;;;18.96;100.00
26775;BME280;14362;51.902;7.626;2023-07-31T15:16:28;99945.38;;;19.04;100.00
26775;BME280;14362;51.902;7.626;2023-07-31T15:20:31;99948.56;;;18.99;100.00
26775;BME280;14362;51.902;7.626;2023-07-31T15:24:34;99936.84;;;19.00;100.00
26775;BME280;14362;51.902;7.626;2023-07-31T15:28:37;99940.47;;;18.97;100.00
26775;BME280;14362;51.902;7.626;2023-07-31T15:32:38;99923.16;;;18.99;100.00
26775;BME280;14362;51.902;7.626;2023-07-31T15:36:40;99907.81;;;19.00;100.00
26775;BME280;14362;51.902;7.626;2023-07-31T15:40:42;99912.25;;;19.01;100.00
26775;BME280;14362;51.902;7.626;2023-07-31T15:44:44;99898.56;;;19.03;100.00
26775;BME280;14362;51.902;7.626;2023-07-31T15:48:46;99892.47;;;18.97;100.00
26775;BME280;14362;51.902;7.626;2023-07-31T15:52:47;99900.16;;;18.97;100.00
26775;BME280;14362;51.902;7.626;2023-07-31T15:56:49;99899.34;;;19.00;100.00
26775;BME280;14362;51.902;7.626;2023-07-31T16:00:52;99890.88;;;19.03;100.00
26775;BME280;14362;51.902;7.626;2023-07-31T16:04:54;99887.66;;;18.94;100.00
26775;BME280;14362;51.902;7.626;2023-07-31T16:08:55;99879.13;;;18.80;100.00
26775;BME280;14362;51.902;7.626;2023-07-31T16:12:57;99886.38;;;18.74;100.00
26775;BME280;14362;51.902;7.626;2023-07-31T16:17:00;99877.09;;;18.67;100.00
26775;BME280;14362;51.902;7.626;2023-07-31T16:21:01;99885.94;;;18.69;100.00
26775;BME280;14362;51.902;7.626;2023-07-31T16:25:03;99874.22;;;18.60;100.00
26775;BME280;14362;51.902;7.626;2023-07-31T16:29:05;99862.53;;;18.61;100.00
26775;BME280;14362;51.902;7.626;2023-07-31T16:33:08;99855.25;;;18.57;100.00
26775;BME280;14362;51.902;7.626;2023-07-31T16:37:09;99851.66;;;18.56;100.00
26775;BME280;14362;51.902;7.626;2023-07-31T16:41:11;99833.88;;;18.56;100.00
26775;BME280;14362;51.902;7.626;2023-07-31T16:45:12;99829.41;;;18.45;100.00
26775;BME280;14362;51.902;7.626;2023-07-31T16:49:15;99826.22;;;18.46;100.00
26775;BME280;14362;51.902;7.626;2023-07-31T16:53:16;99822.97;;;18.44;100.00
26775;BME280;14362;51.902;7.626;2023-07-31T16:57:18;99798.78;;;18.47;100.00
26775;BME280;14362;51.902;7.626;2023-07-31T17:01:19;99817.72;;;18.43;100.00
26775;BME280;14362;51.902;7.626;2023-07-31T17:05:23;99793.16;;;18.43;100.00
26775;BME280;14362;51.902;7.626;2023-07-31T17:09:24;99804.44;;;18.43;100.00
26775;BME280;14362;51.902;7.626;2023-07-31T17:13:26;99805.63;;;18.42;100.00
26775;BME280;14362;51.902;7.626;2023-07-31T17:17:28;99802.81;;;18.39;100.00
26775;BME280;14362;51.902;7.626;2023-07-31T17:21:31;99799.59;;;18.37;100.00
26775;BME280;14362;51.902;7.626;2023-07-31T17:25:32;99790.66;;;18.31;100.00
26775;BME280;14362;51.902;7.626;2023-07-31T17:29:34;99787.03;;;18.24;100.00
26775;BME280;14362;51.902;7.626;2023-07-31T17:33:35;99781.00;;;18.25;100.00
26775;BME280;14362;51.902;7.626;2023-07-31T17:37:38;99776.13;;;18.19;100.00
26775;BME280;14362;51.902;7.626;2023-07-31T17:41:39;99767.63;;;18.15;100.00
26775;BME280;14362;51.902;7.626;2023-07-31T17:45:41;99758.38;;;18.15;100.00
26775;BME280;14362;51.902;7.626;2023-07-31T17:49:42;99754.31;;;18.12;100.00
26775;BME280;14362;51.902;7.626;2023-07-31T17:53:45;99744.66;;;18.13;100.00
26775;BME280;14362;51.902;7.626;2023-07-31T17:57:47;99738.63;;;18.11;100.00
26775;BME280;14362;51.902;7.626;2023-07-31T18:01:48;99743.03;;;18.05;100.00
26775;BME280;14362;51.902;7.626;2023-07-31T18:05:49;99746.25;;;18.07;100.00
26775;BME280;14362;51.902;7.626;2023-07-31T18:09:52;99738.59;;;18.08;100.00
26775;BME280;14362;51.902;7.626;2023-07-31T18:13:54;99745.03;;;18.01;100.00
26775;BME280;14362;51.902;7.626;2023-07-31T18:17:55;99738.97;;;17.99;100.00
26775;BME280;14362;51.902;7.626;2023-07-31T18:21:56;99733.75;;;17.98;100.00
26775;BME280;14362;51.902;7.626;2023-07-31T18:25:59;99735.72;;;17.97;100.00
26775;BME280;14362;51.902;7.626;2023-07-31T18:30:01;99732.50;;;17.95;100.00
26775;BME280;14362;51.902;7.626;2023-07-31T18:34:02;99716.41;;;17.96;100.00
26775;BME280;14362;51.902;7.626;2023-07-31T18:38:04;99737.31;;;17.88;100.00
26775;BME280;14362;51.902;7.626;2023-07-31T18:42:07;99722.78;;;17.82;100.00
26775;BME280;14362;51.902;7.626;2023-07-31T18:46:10;99720.38;;;17.81;100.00
26775;BME280;14362;51.902;7.626;2023-07-31T18:50:11;99720.34;;;17.77;100.00
26775;BME280;14362;51.902;7.626;2023-07-31T18:54:13;99703.44;;;17.77;100.00
26775;BME280;14362;51.902;7.626;2023-07-31T18:58:16;99703.44;;;17.70;100.00
26775;BME280;14362;51.902;7.626;2023-07-31T19:02:17;99701.41;;;17.67;100.00
26775;BME280;14362;51.902;7.626;2023-07-31T19:06:19;99682.47;;;17.64;100.00
26775;BME280;14362;51.902;7.626;2023-07-31T19:10:20;99690.13;;;17.64;100.00
26775;BME280;14362;51.902;7.626;2023-07-31T19:14:23;99675.19;;;17.60;100.00
26775;BME280;14362;51.902;7.626;2023-07-31T19:18:25;99680.81;;;17.56;100.00
26775;BME280;14362;51.902;7.626;2023-07-31T19:22:26;99663.09;;;17.56;100.00
26775;BME280;14362;51.902;7.626;2023-07-31T19:26:28;99655.44;;;17.56;100.00
26775;BME280;14362;51.902;7.626;2023-07-31T19:30:30;99649.00;;;17.52;100.00
26775;BME280;14362;51.902;7.626;2023-07-31T19:34:32;99651.41;;;17.50;100.00
26775;BME280;14362;51.902;7.626;2023-07-31T19:38:33;99635.72;;;17.49;100.00
26775;BME280;14362;51.902;7.626;2023-07-31T19:42:36;99626.84;;;17.51;100.00
26775;BME280;14362;51.902;7.626;2023-07-31T19:46:38;99628.47;;;17.48;100.00
26775;BME280;14362;51.902;7.626;2023-07-31T19:50:40;99620.78;;;17.46;100.00
26775;BME280;14362;51.902;7.626;2023-07-31T19:54:41;99601.47;;;17.44;100.00
26775;BME280;14362;51.902;7.626;2023-07-31T19:58:43;99589.00;;;17.45;100.00
26775;BME280;14362;51.902;7.626;2023-07-31T20:02:46;99581.75;;;17.44;100.00
26775;BME280;14362;51.902;7.626;2023-07-31T20:06:47;99593.03;;;17.44;100.00
26775;BME280;14362;51.902;7.626;2023-07-31T20:10:48;99593.41;;;17.43;100.00
26775;BME280;14362;51.902;7.626;2023-07-31T20:14:51;99594.63;;;17.42;100.00
26775;BME280;14362;51.902;7.626;2023-07-31T20:18:55;99587.78;;;17.43;100.00
26775;BME280;14362;51.902;7.626;2023-07-31T20:22:57;99581.72;;;17.41;100.00
26775;BME280;14362;51.902;7.626;2023-07-31T20:26:59;99580.53;;;17.42;100.00
26775;BME280;14362;51.902;7.626;2023-07-31T20:31:00;99577.72;;;17.38;100.00
26775;BME280;14362;51.902;7.626;2023-07-31T20:35:04;99572.06;;;17.42;100.00
26775;BME280;14362;51.902;7.626;2023-07-31T20:39:06;99566.84;;;17.40;100.00
26775;BME280;14362;51.902;7.626;2023-07-31T20:43:07;99563.22;;;17.40;100.00
26775;BME280;14362;51.902;7.626;2023-07-31T20:47:15;99557.59;;;17.40;100.00
26775;BME280;14362;51.902;7.626;2023-07-31T20:51:18;99556.78;;;17.39;100.00
26775;BME280;14362;51.902;7.626;2023-07-31T20:55:20;99550.78;;;17.44;100.00